createdAt,value
2023-06-07T00:00:50.447Z,17.80
2023-06-07T00:03:53.408Z,17.37
2023-06-07T00:07:02.336Z,16.80
2023-06-07T00:10:05.915Z,16.98
2023-06-07T00:13:08.934Z,17.08
2023-06-07T00:16:11.897Z,16.98
2023-06-07T00:19:16.509Z,16.10
2023-06-07T00:22:19.295Z,16.55
2023-06-07T00:25:22.226Z,16.27
2023-06-07T00:28:25.370Z,16.95
2023-06-07T00:31:28.909Z,17.50
2023-06-07T00:34:31.793Z,15.13
2023-06-07T00:37:34.849Z,16.08
2023-06-07T00:40:37.575Z,16.05
2023-06-07T00:43:40.312Z,16.02
2023-06-07T00:46:43.128Z,15.43
2023-06-07T00:49:46.109Z,14.27
2023-06-07T00:52:49.106Z,15.68
2023-06-07T00:55:52.119Z,15.02
2023-06-07T00:58:55.048Z,13.98
2023-06-07T01:01:58.876Z,13.77
2023-06-07T01:05:05.004Z,14.93
2023-06-07T01:08:08.055Z,15.65
2023-06-07T01:11:12.146Z,14.07
2023-06-07T01:14:15.851Z,14.48
2023-06-07T01:17:19.467Z,14.57
2023-06-07T01:20:26.746Z,14.27
2023-06-07T01:23:34.076Z,13.82
2023-06-07T01:26:38.186Z,13.50
2023-06-07T01:29:41.140Z,14.30
2023-06-07T01:32:44.345Z,13.80
2023-06-07T01:35:48.400Z,13.47
2023-06-07T01:38:51.523Z,13.75
2023-06-07T01:41:54.746Z,13.15
2023-06-07T01:44:58.634Z,12.60
2023-06-07T01:48:02.119Z,11.35
2023-06-07T01:51:04.967Z,12.03
2023-06-07T01:54:07.779Z,11.90
2023-06-07T01:57:10.643Z,13.02
2023-06-07T02:00:24.473Z,12.13
2023-06-07T02:03:38.010Z,11.63
2023-06-07T02:06:45.204Z,11.87
2023-06-07T02:09:49.338Z,10.82
2023-06-07T02:12:54.435Z,11.10
2023-06-07T02:15:57.252Z,12.23
2023-06-07T02:19:00.782Z,12.10
2023-06-07T02:22:03.652Z,12.50
2023-06-07T02:25:06.899Z,12.27
2023-06-07T02:28:10.079Z,12.52
2023-06-07T02:31:12.800Z,12.75
2023-06-07T02:34:15.584Z,12.18
2023-06-07T02:37:18.996Z,12.23
2023-06-07T02:40:22.086Z,12.77
2023-06-07T02:43:24.701Z,12.00
2023-06-07T02:46:27.502Z,12.25
2023-06-07T02:49:30.238Z,11.75
2023-06-07T02:52:33.435Z,12.40
2023-06-07T02:55:36.196Z,11.68
2023-06-07T02:58:39.283Z,11.60
2023-06-07T03:01:42.018Z,11.05
2023-06-07T03:04:45.132Z,11.60
2023-06-07T03:07:47.814Z,11.47
2023-06-07T03:10:50.658Z,11.63
2023-06-07T03:13:53.433Z,11.68
2023-06-07T03:16:56.270Z,10.82
2023-06-07T03:19:58.942Z,11.80
2023-06-07T03:23:03.697Z,10.77
2023-06-07T03:26:06.591Z,11.43
2023-06-07T03:29:10.786Z,11.52
2023-06-07T03:32:13.415Z,11.02
2023-06-07T03:35:16.172Z,11.90
2023-06-07T03:38:18.836Z,12.67
2023-06-07T03:41:21.545Z,11.63
2023-06-07T03:44:25.123Z,11.98
2023-06-07T03:47:28.094Z,12.48
2023-06-07T03:50:30.993Z,11.93
2023-06-07T03:53:34.172Z,12.27
2023-06-07T03:56:37.222Z,11.60
2023-06-07T03:59:40.054Z,11.02
2023-06-07T04:02:43.092Z,11.95
2023-06-07T04:05:46.949Z,11.07
2023-06-07T04:08:49.625Z,10.80
2023-06-07T04:11:52.724Z,11.40
2023-06-07T04:14:55.470Z,10.15
2023-06-07T04:17:58.282Z,9.65
2023-06-07T04:21:01.258Z,8.95
2023-06-07T04:24:05.605Z,8.87
2023-06-07T04:27:12.805Z,9.15
2023-06-07T04:30:19.582Z,9.52
2023-06-07T04:33:22.577Z,8.52
2023-06-07T04:36:29.876Z,9.02
2023-06-07T04:39:32.541Z,8.83
2023-06-07T04:42:35.520Z,9.35
2023-06-07T04:45:41.415Z,9.10
2023-06-07T04:48:44.714Z,9.35
2023-06-07T04:51:49.890Z,9.50
2023-06-07T04:54:54.990Z,9.13
2023-06-07T04:58:01.387Z,9.82
2023-06-07T05:01:04.658Z,9.90
2023-06-07T05:04:07.515Z,10.55
2023-06-07T05:07:12.577Z,9.93
2023-06-07T05:10:15.373Z,9.97
2023-06-07T05:13:18.175Z,10.05
2023-06-07T05:16:21.510Z,10.20
2023-06-07T05:19:24.340Z,9.93
2023-06-07T05:22:27.300Z,9.88
2023-06-07T05:25:30.366Z,9.30
2023-06-07T05:28:33.105Z,9.35
2023-06-07T05:31:35.924Z,9.32
2023-06-07T05:34:39.600Z,9.43
2023-06-07T05:37:42.395Z,9.73
2023-06-07T05:40:45.168Z,9.57
2023-06-07T05:43:47.897Z,9.15
2023-06-07T05:46:50.641Z,10.02
2023-06-07T05:49:54.948Z,9.80
2023-06-07T05:52:58.733Z,9.98
2023-06-07T05:56:01.677Z,11.17
2023-06-07T05:59:04.385Z,10.60
2023-06-07T06:02:08.501Z,10.52
2023-06-07T06:05:11.438Z,11.57
2023-06-07T06:08:14.723Z,11.55
2023-06-07T06:11:17.581Z,13.03
2023-06-07T06:14:22.239Z,12.07
2023-06-07T06:17:25.030Z,11.63
2023-06-07T06:20:28.000Z,12.02
2023-06-07T06:23:30.785Z,12.65
2023-06-07T06:26:34.115Z,12.33
2023-06-07T06:29:36.828Z,11.63
2023-06-07T06:32:40.449Z,13.00
2023-06-07T06:35:44.642Z,12.48
2023-06-07T06:38:47.776Z,13.27
2023-06-07T06:41:50.615Z,12.23
2023-06-07T06:44:53.427Z,12.55
2023-06-07T06:47:56.448Z,12.65
2023-06-07T06:50:59.296Z,13.25
2023-06-07T06:54:02.104Z,11.98
2023-06-07T06:57:05.305Z,10.63
2023-06-07T07:00:11.687Z,9.30
2023-06-07T07:03:14.492Z,9.70
2023-06-07T07:06:18.182Z,9.40
2023-06-07T07:09:20.963Z,8.20
2023-06-07T07:12:23.876Z,6.57
2023-06-07T07:15:29.015Z,6.68
2023-06-07T07:18:31.778Z,6.97
2023-06-07T07:21:34.524Z,7.00
2023-06-07T07:24:37.202Z,7.03
2023-06-07T07:27:40.072Z,6.03
2023-06-07T07:30:42.820Z,5.70
2023-06-07T07:33:45.617Z,5.00
2023-06-07T07:36:48.560Z,5.50
2023-06-07T07:39:51.533Z,4.90
2023-06-07T07:42:54.274Z,4.90
2023-06-07T07:45:57.228Z,5.32
2023-06-07T07:49:00.193Z,5.75
2023-06-07T07:52:03.097Z,5.10
2023-06-07T07:55:08.624Z,6.07
2023-06-07T07:58:11.841Z,6.03
2023-06-07T08:01:16.587Z,5.53
2023-06-07T08:04:19.382Z,6.03
2023-06-07T08:07:22.199Z,6.53
2023-06-07T08:10:26.261Z,6.72
2023-06-07T08:13:29.892Z,5.80
2023-06-07T08:16:32.918Z,6.28
2023-06-07T08:19:36.024Z,6.22
2023-06-07T08:22:42.420Z,5.37
2023-06-07T08:25:45.081Z,4.68
2023-06-07T08:28:47.927Z,4.90
2023-06-07T08:31:50.780Z,5.05
2023-06-07T08:34:53.631Z,5.43
2023-06-07T08:37:56.395Z,6.90
2023-06-07T08:41:02.051Z,6.05
2023-06-07T08:44:05.084Z,4.90
2023-06-07T08:47:08.431Z,5.18
2023-06-07T08:50:15.397Z,4.90
2023-06-07T08:53:28.039Z,5.12
2023-06-07T08:56:34.508Z,5.50
2023-06-07T08:59:38.125Z,5.03
2023-06-07T09:02:41.002Z,4.95
2023-06-07T09:05:44.404Z,5.20
2023-06-07T09:08:47.263Z,5.20
2023-06-07T09:11:54.082Z,5.55
2023-06-07T09:14:57.032Z,5.73
2023-06-07T09:18:01.392Z,5.50
2023-06-07T09:21:24.188Z,5.12
2023-06-07T09:24:31.625Z,4.80
2023-06-07T09:27:34.577Z,4.37
2023-06-07T09:30:46.871Z,4.40
2023-06-07T09:33:49.663Z,3.95
2023-06-07T09:36:57.936Z,3.80
2023-06-07T09:40:09.088Z,3.90
2023-06-07T09:43:12.447Z,4.10
2023-06-07T09:46:16.385Z,3.67
2023-06-07T09:49:36.174Z,3.33
2023-06-07T09:52:40.438Z,3.85
2023-06-07T09:55:43.376Z,3.40
2023-06-07T09:58:50.816Z,3.10
2023-06-07T10:01:54.335Z,3.13
2023-06-07T10:04:59.704Z,3.10
2023-06-07T10:08:03.708Z,2.87
2023-06-07T10:11:06.886Z,2.67
2023-06-07T10:14:14.095Z,2.60
2023-06-07T10:17:18.027Z,3.03
2023-06-07T10:20:26.118Z,2.62
2023-06-07T10:23:45.912Z,2.70
2023-06-07T10:26:58.674Z,2.50
2023-06-07T10:30:03.118Z,2.75
2023-06-07T10:33:06.624Z,2.90
2023-06-07T10:36:09.702Z,2.90
2023-06-07T10:39:13.267Z,3.20
2023-06-07T10:42:17.269Z,2.83
2023-06-07T10:45:21.153Z,2.80
2023-06-07T10:48:35.894Z,2.83
2023-06-07T10:51:53.150Z,3.10
2023-06-07T10:54:56.182Z,3.10
2023-06-07T10:57:59.903Z,3.80
2023-06-07T11:01:23.045Z,3.58
2023-06-07T11:04:41.499Z,2.70
2023-06-07T11:07:49.144Z,2.92
2023-06-07T11:10:52.213Z,2.55
2023-06-07T11:13:54.900Z,2.95
2023-06-07T11:16:58.006Z,3.20
2023-06-07T11:20:01.800Z,3.00
2023-06-07T11:23:30.330Z,3.28
2023-06-07T11:26:37.007Z,3.78
2023-06-07T11:29:41.053Z,4.65
2023-06-07T11:32:45.465Z,4.40
2023-06-07T11:35:53.261Z,4.43
2023-06-07T11:38:57.865Z,4.45
2023-06-07T11:42:00.852Z,4.75
2023-06-07T11:45:05.471Z,4.95
2023-06-07T11:48:09.332Z,5.12
2023-06-07T11:51:13.201Z,5.20
2023-06-07T11:54:16.412Z,5.32
2023-06-07T11:57:20.654Z,5.12
2023-06-07T12:00:25.021Z,5.40
2023-06-07T12:03:28.468Z,6.35
2023-06-07T12:06:31.758Z,6.00
2023-06-07T12:09:41.706Z,6.90
2023-06-07T12:12:44.643Z,6.43
2023-06-07T12:15:55.542Z,6.37
2023-06-07T12:18:58.693Z,7.12
2023-06-07T12:22:09.404Z,6.60
2023-06-07T12:25:16.807Z,6.43
2023-06-07T12:28:22.336Z,6.87
2023-06-07T12:31:29.724Z,5.85
2023-06-07T12:34:33.462Z,6.90
2023-06-07T12:37:37.160Z,7.43
2023-06-07T12:40:40.058Z,7.30
2023-06-07T12:43:50.175Z,7.70
2023-06-07T12:46:53.073Z,6.62
2023-06-07T12:49:55.915Z,6.18
2023-06-07T12:52:58.781Z,6.50
2023-06-07T12:56:01.681Z,6.03
2023-06-07T12:59:04.598Z,7.05
2023-06-07T13:02:07.707Z,6.30
2023-06-07T13:05:14.281Z,5.82
2023-06-07T13:08:17.466Z,6.37
2023-06-07T13:11:20.257Z,6.10
2023-06-07T13:14:23.195Z,6.70
2023-06-07T13:17:26.460Z,6.20
2023-06-07T13:20:29.517Z,6.10
2023-06-07T13:23:32.353Z,6.57
2023-06-07T13:26:35.127Z,6.15
2023-06-07T13:29:37.955Z,6.10
2023-06-07T13:32:41.848Z,5.20
2023-06-07T13:35:44.716Z,5.85
2023-06-07T13:38:47.572Z,5.70
2023-06-07T13:41:50.321Z,4.47
2023-06-07T13:44:53.992Z,4.03
2023-06-07T13:47:56.836Z,4.37
2023-06-07T13:50:59.803Z,4.43
2023-06-07T13:54:02.825Z,4.37
2023-06-07T13:57:06.107Z,4.40
2023-06-07T14:00:10.127Z,4.43
2023-06-07T14:03:13.576Z,4.18
2023-06-07T14:06:16.688Z,4.10
2023-06-07T14:09:20.607Z,4.50
2023-06-07T14:12:23.390Z,4.65
2023-06-07T14:15:28.004Z,4.55
2023-06-07T14:18:31.219Z,4.12
2023-06-07T14:21:35.001Z,5.97
2023-06-07T14:24:37.841Z,5.83
2023-06-07T14:27:40.534Z,5.65
2023-06-07T14:30:43.292Z,5.50
2023-06-07T14:33:46.392Z,5.37
2023-06-07T14:36:49.219Z,7.18
2023-06-07T14:39:52.126Z,9.37
2023-06-07T14:42:55.061Z,6.10
2023-06-07T14:45:58.079Z,9.73
2023-06-07T14:49:01.098Z,7.18
2023-06-07T14:52:04.622Z,6.75
2023-06-07T14:55:08.845Z,6.10
2023-06-07T14:58:12.324Z,5.95
2023-06-07T15:01:15.991Z,5.87
2023-06-07T15:04:19.288Z,5.65
2023-06-07T15:07:22.089Z,5.22
2023-06-07T15:10:24.944Z,6.13
2023-06-07T15:13:27.641Z,5.80
2023-06-07T15:16:30.825Z,6.53
2023-06-07T15:19:34.273Z,5.70
2023-06-07T15:22:41.470Z,5.78
2023-06-07T15:25:44.224Z,6.13
2023-06-07T15:28:46.977Z,5.62
2023-06-07T15:31:52.995Z,5.72
2023-06-07T15:34:56.011Z,5.07
2023-06-07T15:37:58.734Z,5.47
2023-06-07T15:41:01.570Z,5.27
2023-06-07T15:44:07.387Z,5.87
2023-06-07T15:47:11.458Z,6.12
2023-06-07T15:50:14.288Z,5.95
2023-06-07T15:53:20.548Z,5.57
2023-06-07T15:56:23.355Z,5.00
2023-06-07T15:59:26.197Z,4.93
2023-06-07T16:02:29.160Z,4.78
2023-06-07T16:05:32.186Z,4.90
2023-06-07T16:08:35.008Z,5.25
2023-06-07T16:11:39.903Z,4.50
2023-06-07T16:14:43.006Z,4.65
2023-06-07T16:17:45.812Z,4.00
2023-06-07T16:20:48.593Z,4.10
2023-06-07T16:23:51.491Z,4.25
2023-06-07T16:26:54.430Z,4.00
2023-06-07T16:29:57.399Z,4.35
2023-06-07T16:33:05.792Z,4.50
2023-06-07T16:36:08.819Z,5.07
2023-06-07T16:39:11.601Z,4.82
2023-06-07T16:42:14.510Z,4.20
2023-06-07T16:45:17.276Z,4.20
2023-06-07T16:48:23.050Z,4.20
2023-06-07T16:51:25.923Z,4.62
2023-06-07T16:54:28.728Z,4.62
2023-06-07T16:57:31.434Z,4.13
2023-06-07T17:00:34.253Z,4.35
2023-06-07T17:03:37.089Z,4.35
2023-06-07T17:06:39.989Z,4.50
2023-06-07T17:09:42.741Z,4.20
2023-06-07T17:12:45.815Z,4.23
2023-06-07T17:15:50.720Z,4.40
2023-06-07T17:18:53.708Z,4.00
2023-06-07T17:21:56.432Z,3.90
2023-06-07T17:24:59.329Z,4.30
2023-06-07T17:28:05.624Z,4.50
2023-06-07T17:31:08.480Z,4.20
2023-06-07T17:34:13.284Z,4.05
2023-06-07T17:37:18.984Z,4.53
2023-06-07T17:40:21.761Z,4.43
2023-06-07T17:43:24.534Z,4.23
2023-06-07T17:46:27.310Z,5.00
2023-06-07T17:49:30.761Z,4.85
2023-06-07T17:52:33.469Z,4.78
2023-06-07T17:55:36.547Z,4.62
2023-06-07T17:58:39.400Z,4.70
2023-06-07T18:01:44.439Z,4.80
2023-06-07T18:04:47.316Z,5.20
2023-06-07T18:07:50.221Z,5.20
2023-06-07T18:10:53.139Z,4.95
2023-06-07T18:13:56.241Z,4.73
2023-06-07T18:16:59.186Z,5.07
2023-06-07T18:20:02.812Z,4.85
2023-06-07T18:23:06.695Z,5.43
2023-06-07T18:26:11.553Z,5.28
2023-06-07T18:29:16.414Z,5.30
2023-06-07T18:32:19.372Z,5.40
2023-06-07T18:35:22.392Z,5.12
2023-06-07T18:38:25.729Z,5.03
2023-06-07T18:41:29.251Z,5.00
2023-06-07T18:44:32.921Z,5.17
2023-06-07T18:47:35.907Z,5.20
2023-06-07T18:50:38.801Z,5.57
2023-06-07T18:53:41.694Z,5.78
2023-06-07T18:56:44.499Z,5.32
2023-06-07T18:59:48.670Z,5.43
2023-06-07T19:02:52.441Z,5.82
2023-06-07T19:05:56.377Z,5.50
2023-06-07T19:08:59.208Z,5.57
2023-06-07T19:12:02.097Z,5.68
2023-06-07T19:15:05.758Z,5.53
2023-06-07T19:18:09.387Z,6.07
2023-06-07T19:21:13.124Z,5.53
2023-06-07T19:24:16.636Z,5.68
2023-06-07T19:27:19.943Z,6.28
2023-06-07T19:30:22.904Z,999.90
2023-06-07T19:33:28.510Z,981.63
2023-06-07T19:36:32.673Z,995.35
2023-06-07T19:39:35.584Z,765.90
2023-06-07T19:42:39.170Z,851.80
2023-06-07T19:45:41.990Z,877.27
2023-06-07T19:48:46.828Z,859.47
2023-06-07T19:51:49.627Z,785.87
2023-06-07T19:54:53.197Z,646.63
2023-06-07T19:57:55.988Z,544.60
2023-06-07T20:00:58.919Z,453.07
2023-06-07T20:04:03.511Z,463.50
2023-06-07T20:07:09.414Z,545.80
2023-06-07T20:10:12.258Z,390.50
2023-06-07T20:13:18.347Z,377.85
2023-06-07T20:16:21.687Z,259.67
2023-06-07T20:19:24.868Z,312.98
2023-06-07T20:22:33.881Z,284.00
2023-06-07T20:25:36.820Z,259.67
2023-06-07T20:28:39.769Z,161.90
2023-06-07T20:31:46.411Z,148.47
2023-06-07T20:34:49.209Z,141.70
2023-06-07T20:37:52.153Z,149.55
2023-06-07T20:40:54.829Z,161.25
2023-06-07T20:43:57.570Z,170.87
2023-06-07T20:47:01.414Z,156.60
2023-06-07T20:50:04.712Z,133.68
2023-06-07T20:53:07.816Z,125.57
2023-06-07T20:56:10.709Z,118.80
2023-06-07T20:59:13.457Z,110.25
2023-06-07T21:02:16.384Z,109.43
2023-06-07T21:05:20.700Z,124.47
2023-06-07T21:08:23.650Z,124.15
2023-06-07T21:11:26.979Z,122.20
2023-06-07T21:14:32.894Z,110.95
2023-06-07T21:17:35.863Z,95.87
2023-06-07T21:20:38.568Z,90.30
2023-06-07T21:23:41.526Z,87.60
2023-06-07T21:26:47.304Z,86.87
2023-06-07T21:29:53.962Z,87.32
2023-06-07T21:32:56.879Z,86.97
2023-06-07T21:35:59.855Z,79.12
2023-06-07T21:39:02.807Z,68.50
2023-06-07T21:42:06.124Z,66.47
2023-06-07T21:45:09.533Z,66.90
2023-06-07T21:48:15.418Z,56.40
2023-06-07T21:51:18.217Z,54.45
2023-06-07T21:54:21.002Z,52.90
2023-06-07T21:57:23.825Z,52.50
2023-06-07T22:00:27.259Z,54.47
2023-06-07T22:03:30.086Z,52.47
2023-06-07T22:06:32.864Z,52.08
2023-06-07T22:09:35.611Z,49.75
2023-06-07T22:12:41.850Z,50.12
2023-06-07T22:15:45.727Z,47.25
2023-06-07T22:18:49.905Z,50.77
2023-06-07T22:21:52.598Z,47.80
2023-06-07T22:24:55.271Z,46.37
2023-06-07T22:27:59.302Z,45.50
2023-06-07T22:31:05.090Z,49.88
2023-06-07T22:34:08.680Z,46.97
2023-06-07T22:37:12.624Z,46.30
2023-06-07T22:40:15.401Z,43.50
2023-06-07T22:43:18.129Z,45.42
2023-06-07T22:46:20.907Z,45.47
2023-06-07T22:49:23.634Z,44.37
2023-06-07T22:52:29.800Z,42.45
2023-06-07T22:55:34.104Z,48.38
2023-06-07T22:58:37.068Z,47.70
2023-06-07T23:01:39.701Z,46.50
2023-06-07T23:04:46.286Z,51.20
2023-06-07T23:07:50.429Z,52.17
2023-06-07T23:10:54.059Z,50.72
2023-06-07T23:14:01.020Z,47.75
2023-06-07T23:17:04.012Z,46.92
2023-06-07T23:20:11.224Z,49.33
2023-06-07T23:23:14.008Z,51.30
2023-06-07T23:26:18.119Z,47.45
2023-06-07T23:29:21.955Z,44.95
2023-06-07T23:32:24.845Z,45.08
2023-06-07T23:35:28.070Z,45.30
2023-06-07T23:38:30.755Z,44.53
2023-06-07T23:41:33.560Z,44.03
2023-06-07T23:44:36.244Z,43.53
2023-06-07T23:47:39.064Z,45.70
2023-06-07T23:50:44.620Z,45.93
2023-06-07T23:53:47.382Z,44.85
2023-06-07T23:56:50.754Z,42.60
2023-06-07T23:59:53.548Z,41.30
